Washington Boro, PA (17582)

5:44 AM EST on March 05, 2015 (GMT -0500)
Battery Ridge | Change Station
CLOSE
Current Station
Personal Weather Station
Location: Mountville, PA
Elevation: 525 ft
Nearby Weather Stations
Active Advisory: Winter Storm Warning

Elev 525 ft 40.05 °N, 76.42 °W | Updated 7 minutes ago

Snow
Snow
31.5 °F
Feels Like 32 °F
N
1.7
Wind Variable Wind from NW

Today
High -- | Low -- °F
--% Chance of Precip.
Yesterday
High -- | Low -- °F
Precip. -- in
6:33 AM 6:01 PM
Full, 100% visible
Pressure 30.03 in
Visibility 2.0 miles
Clouds Few 1000 ft
Scattered Clouds 1800 ft
Overcast 3100 ft
Windchill 32 °F
Dew Point 30 °F
Humidity 96%
Rainfall in
Snow Depth Not available.
UV 0 out of 12
Pollen .50 out of 12
Air Quality Not available.
Flu Activity Not available.
SPECI KLNS 051039Z AUTO 32011G16KT 2SM -SN BR FEW010 SCT018 OVC031 00/M01 A3003 RMK AO2 P0002 T00001011

More Conditions Fewer Conditions

Pressure 30.03 in
Visibility 2.0 miles
Clouds Few 1000 ft
Scattered Clouds 1800 ft
Overcast 3100 ft
Windchill 32 °F
Dew Point 30 °F
Humidity 96%
Rainfall in
Snow Depth Not available.
UV 0 out of 12
Pollen .50 out of 12
Air Quality Not available.
Flu Activity Not available.
SPECI KLNS 051039Z AUTO 32011G16KT 2SM -SN BR FEW010 SCT018 OVC031 00/M01 A3003 RMK AO2 P0002 T00001011

More Conditions Fewer Conditions

10-Day Weather Forecast

Almanac

Astronomy

Mar. 05, 2015 Rise Set
Actual Time
Civil Twilight
Nautical Twilight
Astronomical Twilight
Moon
Length of Visible Light
Length of Day
Tomorrow will be .
, % of the Moon is Illuminated

Today's Extremes

State Highs State Lows

Community

WunderPhotos

Upload Photos

1,802,714 photos uploaded!

WunderBlogs® & News

Nearby

Air Quality

  Air Quality AQ Index Pollutant
Not available.

Snow Depth

Station Depth Elevation

Earthquake Activity

City Distance Mag. Time & Date
Minimum magnitude displayed is 2.5.

Coastal Water Temperatures

Place Temperature

Nearby Weather Stations

Winter Storm Warning
Statement as of 3:57 AM EST on March 05, 2015

... Winter Storm Warning remains in effect until 4 PM EST this
afternoon...

* hazard types... snow.

* Accumulations... 4 to 6 inches.

* Timing... light to moderate snow will fall through early this
afternoon... then taper off by late afternoon.

* Impacts... hazardous travel.

* Temperatures... falling into the upper 20s this morning.

Precautionary/preparedness actions...

Dangerous winter weather conditions are expected or occurring.
Use extreme caution if traveling. For the latest weather
information... go to weather.Gov/statecollege or monitor NOAA
Weather Radio.

Report snow or ice accumulation to the National Weather Service
State College by sending an email to ctp.Stormreports@noaa.Gov...
posting to the NWS State College facebook Page... or tweet
@nwsstatecollege with the hashtag c... T... p... W... x.